Hub


Voltar

 INFORMAÇÕES METEOROLÓGICAS

METAR FOR GCFV


ADDS - METARS form results

(1254 UTC 26 April 2019)
Data provider http://aviationweather.gov/metar/data/
 
METAR text: GCFV 261230Z 05015KT 9999 SCT038 23/15 Q1020
Conditions at: GCFV (FUERTEVENTURA AR, ES) observed 1230 UTC 26 April 2019
Temperature: 23.0°C (73°F)
Dewpoint: 15.0°C (59°F) [RH = 61%]
Pressure (altimeter): 30.12 inches Hg (1020.0 mb)
Winds: from the NE (50 degrees) at 17 MPH (15 knots; 7.7 m/s)
Visibility: 6 or more miles (10+ km)
Ceiling: at least 12,000 feet AGL
Clouds: scattered clouds at 3800 feet AGL
Weather: no significant weather observed at this time

METAR text: GCFV 261200Z 05015KT 9999 SCT038 22/14 Q1021
Conditions at: GCFV (FUERTEVENTURA AR, ES) observed 1200 UTC 26 April 2019
Temperature: 22.0°C (72°F)
Dewpoint: 14.0°C (57°F) [RH = 60%]
Pressure (altimeter): 30.15 inches Hg (1021.0 mb)
Winds: from the NE (50 degrees) at 17 MPH (15 knots; 7.7 m/s)
Visibility: 6 or more miles (10+ km)
Ceiling: at least 12,000 feet AGL
Clouds: scattered clouds at 3800 feet AGL
Weather: no significant weather observed at this time

Forecast for: GCFV (FUERTEVENTURA AR, ES)
Text: TAF GCFV 260800Z 2609/2709 04019KT 9999 SCT030 TX23/2614Z TN17/2705Z
Forecast period: 0900 to 2000 UTC 26 April 2019
Forecast type: FROM: standard forecast or significant change
Winds: from the NE (40 degrees) at 22 MPH (19 knots; 9.8 m/s)
Visibility: 6 or more miles 10+ km)
Ceiling: at least 12,000 feet AGL
Clouds: scattered clouds at 3000 feet AGL
Weather: no significant weather forecast for this period
Text: PROB40
Forecast period: 0900 to 1000 UTC 26 April 2019
Forecast type: TEMPORARY: The following changes expected for less than half the time period
Winds: from the N (360 degrees) at 10 MPH (9 knots; 4.6 m/s)
Visibility: missing
Ceiling: unknown
Clouds: missing
Weather: no significant weather forecast for this period
Text: TEMPO 2609/2610 36009KT
Forecast period: 2000 UTC 26 April 2019 to 0900 UTC 27 April 2019
Forecast type: BECOMING: Conditions expected to become as follows by 2200 UTC 26 April 2019
Winds: from the N (350 degrees) at 10 MPH (9 knots; 4.6 m/s)
Visibility: 6 or more miles 10+ km)
Ceiling: at least 12,000 feet AGL
Clouds: scattered clouds at 3000 feet AGL
Weather: no significant weather forecast for this period


 MAPA DO AEROPORTO


 INFORMAÇÕES DA PISTA

Pista 01 Tamanho da pista 7874 ft Largura da pista 148 ft
Elevação da pista 37 ft Ranhura da pista 0 ft Proa da pista 2
Pista 19 Tamanho da pista 7874 ft Largura da pista 148 ft
Elevação da pista 75 ft Ranhura da pista 0 ft Proa da pista 182

 FREQUÊNCIAS DO AEROPORTO

Tipo APP Nome CANARIAS A Frequência 129.3 MHZ
Tipo ATIS Nome ATIS Frequência 118.65 MHZ
Tipo GND Nome GND Frequência 121.7 MHZ
Tipo TWR Nome TWR Frequência 118.5 MHZ

 AUXÍLIOS DE NAVEGAÇÃO PRÓXIMOS AO AEROPORTO

Tipo VOR-DME Nome Fuerteventura Frequência 114100 KHZ